VIRGULINO TRAIL RUN 2025, 08/06/2025
16KM FEM
Pos Num Atleta Sx. Idd. Faixa F.E C. Equipe Tempo
1 1014 ANDRESSA VIEIRA RIBEIRO F 31 F3039 - CLUBE DA CORRIDA 01:20:17.891
2 1061 GILMARA OLIVEIRA DE SOUZA F 37 F3039 - FERAS RUM 01:20:54.766
3 1077 JISLENE DE JESUS ROCHA BARROS F 46 F4049 - CORRECAO DA 01:21:32.646
MADRUGADA
4 1005 ALEXANDRA PEREIRA DA SILVA SANTOS F 39 F3039 - CORREDORES DE 01:26:31.829
TREMEDAL
5 1001 ADLA MORENO BARBOSA F 37 F3039 - CAFE ARBE 01:26:36.266
6 1103 LETICIA LIMA SANTOS DE SOUZA F 31 F3039 1 CIDA SANTOS 01:26:42.606
7 1025 DAIANNE GABRIELLE MORAIS F 33 F3039 2 GREENLIFE SPORTS 01:28:57.271
BEHRMANN
8 1031 DENIEIDE DE SOUSA CRUZ DANNY F 36 F3039 3 OMARA CALCADOS 01:30:20.757
CRUZ
9 1145 ROSANGELA FRANCA OLIVEIRA F 39 F3039 4 DS TRAINER 01:30:41.350
10 1074 JAQUELINE SILVA PEREIRA F 28 F1829 1 01:30:48.941
11 1089 JULIA SANTOS SILVA F 35 F3039 5 CLUB DA CORRIDA 01:31:43.617
12 1165 ZILDA MARIA DE JESUS F 40 F4049 1 BN RUNNING 01:35:04.574
13 1016 BRENDA SANTOS BASTOS F 36 F3039 6 01:36:36.465
14 1139 RAQUEL RODRIGUES DE BRITO F 39 F3039 7 BN RUNNING 01:38:05.665
15 1011 ANA MARIA TELES DE BRITO DANTAS F 39 F3039 8 TEAM ANDRADE 01:38:15.716
16 1166 MONICK LEBRAO SOUSA F 26 F1829 2 SOCORRISTA 01:39:57.800
SOLIDARIO
17 1096 KATIANE DOS SANTOS ALVES F 50 F5059 1 ASSESSORIA VO3 DE 01:42:00.757
ILHEUS PCD BAHIA
18 1019 CARLA APARECIDA GOMES SANTANA F 45 F4049 2 BORA CORRER HOJE 01:42:11.081
19 1092 KARINE HOJO REBOUCAS F 42 F4049 3 OTICA VENEZA 01:47:18.180
20 1041 EDNA DE SOUZA LIMA F 48 F4049 4 CORISCO E CLUBE DA 01:47:27.653
CORRIDA
21 1095 KAROLLYNE RIBEIRO ROCHA F 28 F1829 3 SO CORRE CLUB 01:47:41.327
22 1044 ELAINE DA SILVA SOUZA F 28 F1829 4 01:47:48.620
23 1130 PAMILLA FAUSTO RESENDE F 37 F3039 9 TENDTUDO 01:47:59.721
24 1110 LUI MATO GROSSO MENDES TOURINHO F 37 F3039 10 OTICAS VENEZAS 01:49:05.314
25 1066 HILDA SUSELE RODRIGUES ALVES F 48 F4049 5 CORREDORES DO 01:50:30.117
BOSQUE
26 1059 GEOVANA PEREIRA MORENO F 47 F4049 6 01:50:35.163
27 1121 MICHELLE FERRAZ OLIVEIRA F 37 F3039 11 TEAM GUDS 01:50:45.276
28 1105 LIGIA DANIELA SOUZA DA SILVA F 45 F4049 7 01:51:50.297
29 1140 RENATA SOUZS OLIVEIRA SANTOS F 49 F4049 8 BROCADORES DE 01:53:28.514
TRILHAS
30 1094 KAROLINA SILVA SANTOS F 41 F4049 9 GREENLIFE 01:54:50.970
PERFORMANCE
31 1013 ANDREA CERQUEIRA DE OLIVEIRA F 59 F5059 2 LIRA RUNNING 01:55:18.617
09/06/2025 - 08:29:11 MS SPORT CRONOMETRAGEM E EVENTOS [Link] @[Link]
VIRGULINO TRAIL RUN 2025, 08/06/2025
16KM FEM
32 1030 DELCINA HERMELINA DOS SANTOS F 50 F5059 3 BARRA DA ESTIVA 01:56:15.004
CAIRES
33 1125 NAIANGELA LOPES F 35 F3039 12 TEAM ANDRADE 01:56:28.755
34 1138 RAFAELA FERREIRA DO ESPIRITO SANTO F 36 F3039 13 01:56:57.193
35 1146 ROSINEIDE DOS SANTOS AMORIM F 44 F4049 10 BROCADORES DE 01:57:52.918
TRILHA
36 1045 ELIANGELA SOARES PARAGUASSU F 45 F4049 11 TEAMANDRADE 01:57:53.674
SANTOS
37 1168 TAIANE ALMEIDA GOIS F 43 F4049 12 FF TREINAMENTO 01:58:39.510
ESPORTIVO
38 1075 JAQUELINE VIEIRA SOUZA PINHEIRO F 29 F1829 5 CLIQUE LAB 01:59:15.076
39 1113 MAIARA DOS ANJOS SANTOS F 28 F1829 6 01:59:22.240
40 1067 HUANDA CRISTINA TENORIO DE F 45 F4049 13 02:00:27.000
MACEDO
41 1144 ROSALINA EVANGELISTA DOS SANTOS F 58 F5059 4 BETTOS OUT DOOR 02:00:42.182
42 1023 CASSIA CHAVES ALVES F 36 F3039 14 02:01:42.022
43 1056 FLAVIA LOBO TEIXEIRA F 33 F3039 15 FF TREINAMENTO 02:01:50.631
ESPORTIVO
44 1033 DENISE DANTAS ALVES F 44 F4049 14 CORPORE 02:05:24.284
45 1098 KELEN SANTOS FRANCA F 23 F1829 7 SO CORRE CLUBE 02:05:58.206
46 1117 MARIANA N LIMA F 38 F3039 16 CORRIDA DAS 02:07:13.009
MENINAS
47 1108 LUCIANA RIBEIRO FREIRE F 46 F4049 15 CORRIDA DAS 02:07:13.032
MENINAS
48 1091 KARINA FLORENCIO PINTO F 47 F4049 16 CORRIDA DAS 02:07:13.788
MENINAS
49 1010 ANA LUZIA BARBOSA DA SILVA F 39 F3039 17 COARACI EDSON 02:07:35.486
MOURA
50 1176 TINA ALVES F 56 F5059 5 CLUB DA CORRIDA 02:07:42.932
51 1104 LIAMARA OLIVEIRA DOS SANTOS F 54 F5059 6 LIGA DAS 02:08:51.583
CORREDORAS
52 1127 NARJARA ANDRADE DE MORAIS F 43 F4049 17 TS ASSESSORIA 02:10:09.312
ESPORTIVA
53 1133 PATRICIA THUANY DANTAS RODRIGUES F 34 F3039 18 THIAGO SILVA 02:10:13.142
PERSONAL
54 1028 DEBORA EVIM ERNESTO GARCIA F 31 F3039 19 TS ASSES ESPORTIVA 02:10:39.416
SE PREPARE PRA
VOAR
55 1132 PATRICIA NOVAIS KOSASA JANDREY F 49 F4049 18 02:10:52.252
56 1062 GISVANIA MARIA SILVA DOS SANTOS F 49 F4049 19 CORPORE RUN 02:13:41.796
DIAS
57 1152 TATIANE DE SOUSA SOARES BORGES F 51 F5059 7 02:14:38.500
58 1076 JESSICA SOARES TELES F 32 F3039 20 02:18:33.746
59 1071 JACIARA CAIRES LUZ F 41 F4049 20 JACY FRUIT 02:20:10.719
09/06/2025 - 08:29:11 MS SPORT CRONOMETRAGEM E EVENTOS [Link] @[Link]
VIRGULINO TRAIL RUN 2025, 08/06/2025
16KM FEM
60 1090 JULIANA SANTOS GUERRA DUTRA F 55 F5059 8 SO CORRE CLUBE 02:25:20.847
61 1073 JAQUELINA OLIVEIRA MACHADO F 44 F4049 21 SEPREPAREPRAVOAR 02:25:44.802
62 1158 VANUBIA FRANCO TAVARES COSTA F 39 F3039 21 SE PREPARE PRA 02:25:44.966
VOAR
63 1043 EDNALDA CARVALHO ALMEIDA F 61 F6069 1 SE PREPARE PRA 02:25:45.268
VOAR
64 1114 MALU MELISSA OLIVEIRA RODRIGUES F 26 F1829 8 MPR 02:27:07.771
65 1093 KARINNE CUNHA MARANINI F 48 F4049 22 PEDROSO RUNNING 02:41:08.546
TEAM
66 1051 EMILLY POLON MOREIRA DE ALMEIDA F 24 F1829 9 02:51:33.320
67 1118 MARTA GOMES ALVES F 20 F1829 10 BROCADORES DE 02:51:33.438
TRILHA
68 1088 JUCINEA DE SOUZA ARAUJO F 42 F4049 23 GREENLIFERS 02:54:09.987
69 1002 ADRIANA CORDEIRO SOARES GALO F 53 F5059 9 ASSESSORIA VO3 DE 02:54:46.697
ILHEUS PCD BAHIA
70 1047 ELIZABETE SILVA SANTOS F 56 F5059 10 GRUPO CORPORE 03:56:48.891
71 1150 SINAI CATHERINE BRASIL LIMA DE F 51 F5059 11 03:56:49.375
CASTRO
72 1116 MARIA JOSE FAUSTO DOS SANTOS F 60 F6069 2 TENDTUDO 04:06:14.080
09/06/2025 - 08:29:11 MS SPORT CRONOMETRAGEM E EVENTOS [Link] @[Link]